< < Back
Terminal Aerodrome Forecast


Current Version              Previous Versions:   1  2  3  4  5  6  7  8  9  

Terminal Aerodrome Forecast

097
FTUS42 KJAX 181036 AAA
TAFGNV
TAF AMD
KGNV 181036Z 1811/1906 00000KT 5SM BR SCT004 BKN015
      TEMPO 1811/1813 3SM BR BKN004
     FM181400 24005KT P6SM SCT007 BKN015 BKN120
     FM181600 25007KT P6SM SCT025 BKN040
     FM181800 25009KT P6SM VCTS SCT030CB BKN050
     FM190000 25005KT P6SM VCSH SCT030 BKN100=



Latest METAR

693
SAUS70 KWBC 181700 RRJ
MTRGNV
METAR KGNV 181653Z 25011KT 10SM FEW037 SCT048 29/21 A2998 RMK AO2 SLP148
T02890206 $


USA.gov is the U.S. government's official web portal to all federal, state and local government web resources and services.